Time;durP1;ratioP1;P1;durP2;ratioP2;P2;SDS_P1;SDS_P2;PMS_P1;PMS_P2;Temp;Humidity;BMP_temperature;BMP_pressure;BME280_temperature;BME280_humidity;BME280_pressure;Samples;Min_cycle;Max_cycle;Signal;HPM_P1;HPM_P2
2021/10/28 00:14:24;;;;;;;32.03;17.77;;;5.10;99.90;;;;;;5052060;28;20880;-78
2021/10/28 00:16:59;;;;;;;39.25;17.98;;;5.10;99.90;;;;;;5050952;28;20059;-77
2021/10/28 00:19:27;;;;;;;34.58;17.90;;;5.00;99.90;;;;;;5032932;28;20032;-78
2021/10/28 00:21:54;;;;;;;33.78;16.10;;;4.90;99.90;;;;;;5048457;28;20108;-77
2021/10/28 00:24:20;;;;;;;40.67;18.85;;;4.90;99.90;;;;;;5050425;28;20095;-77
2021/10/28 00:26:46;;;;;;;;;;;4.90;99.90;;;;;;5051829;28;20025;-78
2021/10/28 00:29:17;;;;;;;43.27;19.97;;;4.90;99.90;;;;;;5051238;28;19909;-77
2021/10/28 00:31:45;;;;;;;34.63;17.65;;;4.80;99.90;;;;;;5049617;28;20267;-77
2021/10/28 00:34:12;;;;;;;31.70;14.13;;;4.80;99.90;;;;;;5032797;28;20052;-77
2021/10/28 00:36:40;;;;;;;22.40;11.07;;;4.80;99.90;;;;;;5049615;28;20508;-77
2021/10/28 00:39:08;;;;;;;26.75;11.80;;;4.90;99.90;;;;;;5033089;28;20040;-77
2021/10/28 00:41:35;;;;;;;22.58;11.30;;;5.00;99.90;;;;;;5051797;28;20488;-78
2021/10/28 00:44:02;;;;;;;23.73;12.10;;;5.00;99.90;;;;;;5052383;28;20029;-77
2021/10/28 00:46:31;;;;;;;20.20;11.02;;;5.10;99.90;;;;;;5035552;28;20041;-77
2021/10/28 00:48:59;;;;;;;22.55;11.25;;;5.00;99.90;;;;;;5051694;28;20048;-78
2021/10/28 00:51:27;;;;;;;19.52;11.30;;;5.20;99.90;;;;;;5034582;28;20029;-77
2021/10/28 00:53:54;;;;;;;24.92;11.48;;;5.10;99.90;;;;;;5051504;28;20090;-78
2021/10/28 00:56:22;;;;;;;25.70;12.52;;;5.10;99.90;;;;;;5033847;28;20039;-77
2021/10/28 00:58:48;;;;;;;21.20;12.90;;;5.00;99.90;;;;;;5034316;28;20036;-77
2021/10/28 01:01:13;;;;;;;;;;;5.10;99.90;;;;;;5056383;28;20033;-78
2021/10/28 01:03:41;;;;;;;25.38;12.98;;;5.00;99.90;;;;;;5058158;28;20314;-78
2021/10/28 01:06:08;;;;;;;24.10;14.48;;;5.00;99.90;;;;;;5038439;28;20049;-77
2021/10/28 01:08:41;;;;;;;31.90;16.65;;;5.00;99.90;;;;;;5038393;28;20051;-78
2021/10/28 01:11:07;;;;;;;27.75;16.48;;;5.00;99.90;;;;;;5038585;28;20060;-77
2021/10/28 01:13:35;;;;;;;38.38;16.92;;;4.90;99.90;;;;;;5042826;28;20060;-78
2021/10/28 01:16:02;;;;;;;27.75;15.43;;;5.00;99.90;;;;;;5043555;28;20033;-78
2021/10/28 01:18:28;;;;;;;29.92;15.98;;;4.90;99.90;;;;;;5037928;28;20091;-78
2021/10/28 01:20:55;;;;;;;28.15;16.10;;;4.90;99.90;;;;;;5037389;28;20029;-77
2021/10/28 01:23:24;;;;;;;27.55;15.57;;;4.80;99.90;;;;;;5055118;28;20029;-78
2021/10/28 01:26:01;;;;;;;30.98;16.70;;;4.80;99.90;;;;;;5055876;28;20032;-77
2021/10/28 01:28:29;;;;;;;30.17;16.17;;;4.70;99.90;;;;;;5042955;28;20032;-78
2021/10/28 01:31:00;;;;;;;39.35;18.45;;;4.70;99.90;;;;;;5043730;28;20087;-78
2021/10/28 01:33:26;;;;;;;38.53;19.40;;;4.70;99.90;;;;;;5038338;28;20029;-77
2021/10/28 01:35:53;;;;;;;41.33;19.58;;;4.70;99.90;;;;;;5036757;28;20108;-78
2021/10/28 01:38:19;;;;;;;45.13;21.20;;;4.60;99.90;;;;;;5054463;28;20021;-77
2021/10/28 01:41:03;;;;;;;39.50;20.67;;;4.60;99.90;;;;;;5035267;28;20427;-77
2021/10/28 01:43:30;;;;;;;45.50;20.15;;;4.60;99.90;;;;;;5054811;28;20029;-77
2021/10/28 01:45:57;;;;;;;33.92;19.83;;;4.50;99.90;;;;;;5053487;28;20401;-77
2021/10/28 01:48:25;;;;;;;34.67;20.58;;;4.60;99.90;;;;;;5035786;28;20029;-77
2021/10/28 01:50:51;;;;;;;42.53;19.90;;;4.60;99.90;;;;;;5052792;28;20025;-77
2021/10/28 01:53:18;;;;;;;35.17;20.50;;;4.60;99.90;;;;;;5054096;28;20026;-77
2021/10/28 01:55:44;;;;;;;36.47;20.90;;;4.60;99.90;;;;;;5053601;28;20036;-77
2021/10/28 01:58:14;;;;;;;43.53;19.90;;;4.60;99.90;;;;;;5035925;28;20048;-77
2021/10/28 02:00:56;;;;;;;35.60;20.92;;;4.70;99.90;;;;;;5053119;28;20032;-77
2021/10/28 02:03:22;;;;;;;38.15;21.15;;;4.70;99.90;;;;;;5052653;28;20082;-76
2021/10/28 02:05:49;;;;;;;;;;;4.70;99.90;;;;;;5051973;28;20053;-76
2021/10/28 02:08:15;;;;;;;34.38;20.55;;;4.80;99.90;;;;;;5033911;28;19908;-77
2021/10/28 02:10:41;;;;;;;42.10;20.70;;;4.70;99.90;;;;;;5051634;28;20032;-77
2021/10/28 02:13:06;;;;;;;;;;;4.80;99.90;;;;;;5051457;28;20416;-77
2021/10/28 02:15:32;;;;;;;36.97;20.77;;;4.80;99.90;;;;;;5050467;28;20658;-76
2021/10/28 02:17:58;;;;;;;;;;;4.70;99.90;;;;;;5033308;28;20239;-76
2021/10/28 02:20:23;;;;;;;31.98;19.80;;;4.70;99.90;;;;;;5033271;28;19944;-76
2021/10/28 02:22:49;;;;;;;;;;;4.70;99.90;;;;;;5052107;28;20033;-76
2021/10/28 02:25:16;;;;;;;35.03;20.33;;;4.70;99.90;;;;;;5033398;28;19908;-76
2021/10/28 02:27:42;;;;;;;34.72;20.35;;;4.60;99.90;;;;;;5051749;28;20073;-76
2021/10/28 02:30:09;;;;;;;;;;;4.70;99.90;;;;;;5035414;28;20114;-77
2021/10/28 02:32:34;;;;;;;41.17;21.67;;;4.70;99.90;;;;;;5053866;28;19905;-76
2021/10/28 02:35:01;;;;;;;;;;;4.60;99.90;;;;;;5052775;28;20037;-77
2021/10/28 02:37:28;;;;;;;39.58;20.55;;;4.70;99.90;;;;;;5058900;28;19976;-77
2021/10/28 02:39:53;;;;;;;34.92;21.83;;;4.70;99.90;;;;;;5034277;28;20029;-77
2021/10/28 02:42:19;;;;;;;;;;;4.70;99.90;;;;;;5052274;28;20035;-77
2021/10/28 02:44:45;;;;;;;36.17;21.80;;;4.70;99.90;;;;;;5052378;28;19909;-77
2021/10/28 02:47:13;;;;;;;34.92;21.60;;;4.70;99.90;;;;;;5052089;28;20029;-78
2021/10/28 02:49:39;;;;;;;45.20;22.20;;;4.70;99.90;;;;;;5036012;28;20500;-77
2021/10/28 02:52:07;;;;;;;;;;;4.70;99.90;;;;;;5052244;28;20055;-77
2021/10/28 02:54:37;;;;;;;37.15;19.40;;;4.70;99.90;;;;;;5052098;28;19921;-77
2021/10/28 02:57:03;;;;;;;36.63;19.90;;;4.80;99.90;;;;;;5052493;28;20091;-77
2021/10/28 02:59:28;;;;;;;;;;;4.80;99.90;;;;;;5052677;28;20037;-77
2021/10/28 03:01:55;;;;;;;29.85;19.25;;;4.80;99.90;;;;;;5067353;28;20456;-76
2021/10/28 03:04:23;;;;;;;32.13;18.17;;;4.80;99.90;;;;;;5051465;28;20036;-76
2021/10/28 03:06:49;;;;;;;30.08;18.23;;;4.80;99.90;;;;;;5035528;28;20033;-76
2021/10/28 03:09:24;;;;;;;36.90;19.23;;;4.70;99.90;;;;;;5039418;28;20436;-76
2021/10/28 03:11:53;;;;;;;31.63;19.42;;;4.70;99.90;;;;;;5033897;28;20025;-76
2021/10/28 03:14:23;;;;;;;34.63;20.48;;;4.70;99.90;;;;;;5033352;28;20045;-77
2021/10/28 03:27:27;;;;;;;36.45;21.55;;;4.60;99.90;;;;;;5050903;28;20040;-77
2021/10/28 03:29:52;;;;;;;43.75;23.52;;;4.50;99.90;;;;;;5051655;28;20025;-76
2021/10/28 03:32:21;;;;;;;;;;;4.60;99.90;;;;;;5034779;28;20082;-76
2021/10/28 03:34:50;;;;;;;41.15;20.67;;;4.60;99.90;;;;;;5051229;28;19959;-76
2021/10/28 03:37:23;;;;;;;44.08;24.48;;;4.70;99.90;;;;;;5051400;28;20020;-76
2021/10/28 03:40:06;;;;;;;34.85;19.90;;;4.50;99.90;;;;;;5050632;28;20040;-78
2021/10/28 04:30:16;;;;;;;33.65;19.48;;;4.10;99.90;;;;;;5053128;28;20039;-78
2021/10/28 04:32:42;;;;;;;36.47;21.45;;;4.00;99.90;;;;;;5054990;28;20033;-78
2021/10/28 04:35:08;;;;;;;;;;;4.10;99.90;;;;;;5032590;28;20511;-77
2021/10/28 04:37:34;;;;;;;37.28;19.83;;;4.00;99.90;;;;;;5032432;28;20527;-77
2021/10/28 04:40:00;;;;;;;;;;;4.00;99.90;;;;;;5051474;28;20052;-77
2021/10/28 04:42:25;;;;;;;43.67;18.80;;;4.00;99.90;;;;;;5032967;28;20006;-77
2021/10/28 04:44:54;;;;;;;;;;;4.00;99.90;;;;;;5051680;28;20024;-76
2021/10/28 04:47:19;;;;;;;43.05;22.02;;;4.10;99.90;;;;;;5031495;28;19911;-75
2021/10/28 04:49:45;;;;;;;;;;;4.00;99.90;;;;;;5032540;28;20025;-77
2021/10/28 04:52:11;;;;;;;43.85;21.55;;;4.00;99.90;;;;;;5050118;28;19905;-77
2021/10/28 04:54:38;;;;;;;39.25;19.05;;;4.00;99.90;;;;;;5049994;28;20064;-77
2021/10/28 04:57:05;;;;;;;39.40;19.00;;;4.10;99.90;;;;;;5053191;28;20110;-78
2021/10/28 04:59:31;;;;;;;36.78;19.13;;;4.10;99.90;;;;;;5037308;28;20136;-77
2021/10/28 05:01:57;;;;;;;;;;;4.10;99.90;;;;;;5057371;28;20072;-78
2021/10/28 05:04:23;;;;;;;35.65;18.60;;;4.10;99.90;;;;;;5050904;28;20003;-78
2021/10/28 05:06:50;;;;;;;;;;;4.20;99.90;;;;;;5036892;28;20124;-78
2021/10/28 05:09:18;;;;;;;34.22;18.50;;;4.20;99.90;;;;;;5053701;28;19915;-77
2021/10/28 05:11:47;;;;;;;33.97;16.40;;;4.20;99.90;;;;;;5049874;28;20481;-76
2021/10/28 05:14:13;;;;;;;33.53;17.52;;;4.30;99.90;;;;;;5031575;28;20051;-77
2021/10/28 05:16:39;;;;;;;;;;;4.20;99.90;;;;;;5049464;28;20021;-76
2021/10/28 05:19:04;;;;;;;33.90;17.02;;;4.30;99.90;;;;;;5049325;28;19909;-76
2021/10/28 05:21:30;;;;;;;;;;;4.30;99.90;;;;;;5032075;28;20036;-76
2021/10/28 05:23:56;;;;;;;26.63;15.52;;;4.40;99.90;;;;;;5031730;28;19908;-77
2021/10/28 05:26:22;;;;;;;34.38;16.85;;;4.20;99.90;;;;;;5049550;28;20060;-77
2021/10/28 05:28:48;;;;;;;;;;;4.20;99.90;;;;;;5032864;28;20543;-77
2021/10/28 05:31:13;;;;;;;25.40;14.32;;;4.20;99.90;;;;;;5050861;28;19916;-77
2021/10/28 05:33:39;;;;;;;;;;;4.20;99.90;;;;;;5032742;28;20036;-77
2021/10/28 05:36:05;;;;;;;21.73;11.50;;;4.20;99.90;;;;;;5050347;28;19912;-77
2021/10/28 05:38:31;;;;;;;33.38;14.02;;;4.20;99.90;;;;;;5048539;28;20388;-76
2021/10/28 05:40:56;;;;;;;;;;;4.20;99.90;;;;;;5050384;28;20511;-76
2021/10/28 05:43:22;;;;;;;22.13;13.18;;;4.10;99.90;;;;;;5050889;28;19908;-78
2021/10/28 05:45:49;;;;;;;;;;;4.20;99.90;;;;;;5037357;28;20029;-78
2021/10/28 05:48:15;;;;;;;27.90;15.15;;;4.40;99.90;;;;;;5052903;28;20267;-75
2021/10/28 05:50:42;;;;;;;24.15;13.57;;;4.30;99.90;;;;;;5032401;28;20423;-76
2021/10/28 05:53:09;;;;;;;28.63;15.75;;;4.30;99.90;;;;;;5034723;28;20033;-76
2021/10/28 05:55:35;;;;;;;31.23;14.52;;;4.30;99.90;;;;;;5053661;28;20633;-76
2021/10/28 05:58:01;;;;;;;;;;;4.40;99.90;;;;;;5051229;28;20103;-75
2021/10/28 06:00:27;;;;;;;32.50;16.30;;;4.40;99.90;;;;;;5033101;28;20303;-76
2021/10/28 06:02:53;;;;;;;;;;;4.40;99.90;;;;;;5050464;28;20032;-76
2021/10/28 06:05:19;;;;;;;30.10;16.20;;;4.50;99.90;;;;;;5050254;28;19921;-76
2021/10/28 06:07:45;;;;;;;30.40;15.98;;;4.60;99.90;;;;;;5031939;28;20564;-76
2021/10/28 06:10:16;;;;;;;;;;;4.50;99.90;;;;;;5033720;28;20037;-76
2021/10/28 06:12:45;;;;;;;34.28;16.60;;;4.60;99.90;;;;;;5051005;28;19915;-76
2021/10/28 06:15:12;;;;;;;43.20;24.08;;;4.70;99.90;;;;;;5032773;28;20036;-77
2021/10/28 06:17:46;;;;;;;39.35;21.20;;;4.80;99.90;;;;;;5035094;28;20492;-77
2021/10/28 06:20:12;;;;;;;33.70;20.33;;;5.20;99.90;;;;;;5054996;28;20029;-76
2021/10/28 06:22:38;;;;;;;;;;;5.80;99.90;;;;;;5057328;28;20060;-77
2021/10/28 06:25:03;;;;;;;29.20;16.38;;;6.50;99.90;;;;;;5037891;28;19905;-76
2021/10/28 06:27:29;;;;;;;31.40;18.10;;;7.30;99.90;;;;;;5037596;28;20055;-76
2021/10/28 06:29:55;;;;;;;29.70;15.95;;;7.90;99.90;;;;;;5041048;28;20037;-76
2021/10/28 06:32:21;;;;;;;;;;;8.50;99.90;;;;;;5060355;28;20039;-77
2021/10/28 06:34:48;;;;;;;27.02;13.23;;;8.90;99.90;;;;;;5056717;28;20578;-77
2021/10/28 06:37:16;;;;;;;25.45;14.43;;;9.10;99.90;;;;;;5059392;28;20089;-78
2021/10/28 06:39:42;;;;;;;29.88;14.10;;;9.30;99.90;;;;;;5031919;28;20028;-78
2021/10/28 06:42:14;;;;;;;64.25;16.73;;;9.30;99.90;;;;;;5041583;28;20025;-77
2021/10/28 06:44:41;;;;;;;44.70;15.77;;;9.30;99.90;;;;;;5058778;28;20028;-77
2021/10/28 06:47:07;;;;;;;58.60;16.45;;;9.30;99.90;;;;;;5059974;28;20039;-77
2021/10/28 06:49:40;;;;;;;30.60;14.70;;;9.30;99.90;;;;;;5060437;28;20070;-77
2021/10/28 06:52:10;;;;;;;37.70;17.08;;;9.30;99.80;;;;;;5060346;28;20051;-77
2021/10/28 06:54:37;;;;;;;41.33;19.67;;;9.30;99.80;;;;;;5047810;28;20033;-78
2021/10/28 07:04:59;;;;;;;41.05;23.17;;;9.40;99.90;;;;;;5059399;28;20084;-78
2021/10/28 07:07:27;;;;;;;40.17;20.35;;;9.50;99.80;;;;;;5055056;28;20484;-76
2021/10/28 07:12:40;;;;;;;38.15;18.00;;;9.70;99.80;;;;;;5055572;28;20032;-77
2021/10/28 07:23:15;;;;;;;25.58;15.07;;;10.30;98.70;;;;;;5058046;28;20040;-78
2021/10/28 07:26:01;;;;;;;27.63;13.75;;;10.50;98.80;;;;;;5034420;28;20059;-77
2021/10/28 07:31:35;;;;;;;26.02;16.52;;;10.60;97.60;;;;;;5052957;28;20052;-77
2021/10/28 07:35:10;;;;;;;36.72;20.77;;;10.50;97.50;;;;;;5034527;28;20041;-77
2021/10/28 08:14:35;;;;;;;29.50;16.17;;;11.60;94.70;;;;;;5053338;28;20075;-78
2021/10/28 08:19:50;;;;;;;24.42;16.17;;;12.20;92.80;;;;;;5053125;28;20057;-78
2021/10/28 08:22:25;;;;;;;30.25;18.65;;;12.50;92.20;;;;;;5036242;28;20033;-76
2021/10/28 08:30:25;;;;;;;28.08;17.08;;;13.70;88.80;;;;;;5046748;28;20089;-80
2021/10/28 08:32:52;;;;;;;29.98;17.00;;;14.50;85.40;;;;;;5027650;28;20086;-80
2021/10/28 08:35:18;;;;;;;27.83;15.98;;;15.10;81.00;;;;;;5046379;28;20049;-79
2021/10/28 08:37:59;;;;;;;26.30;16.52;;;15.50;78.40;;;;;;5028284;28;20024;-81
2021/10/28 08:40:25;;;;;;;25.73;16.23;;;16.10;74.40;;;;;;5046237;28;20551;-78
2021/10/28 08:42:52;;;;;;;29.67;17.38;;;16.80;70.20;;;;;;5046010;28;20056;-79
2021/10/28 08:45:21;;;;;;;25.73;15.85;;;17.30;67.00;;;;;;5046312;28;20029;-79
2021/10/28 08:47:54;;;;;;;23.15;16.95;;;17.80;65.00;;;;;;5028375;28;20044;-78
2021/10/28 08:50:38;;;;;;;32.65;18.35;;;18.10;61.50;;;;;;5046234;28;20100;-77
2021/10/28 08:53:31;;;;;;;34.65;19.13;;;18.50;60.00;;;;;;5046193;28;20013;-78
2021/10/28 08:56:01;;;;;;;36.55;18.70;;;19.00;58.50;;;;;;5028116;28;20036;-76
2021/10/28 09:26:57;;;;;;;20.55;11.73;;;21.10;47.40;;;;;;5049689;28;20062;-78
2021/10/28 09:34:55;;;;;;;25.17;12.65;;;19.90;48.30;;;;;;5049610;28;19924;-77
2021/10/28 09:46:31;;;;;;;25.80;11.63;;;17.60;53.00;;;;;;5049285;28;20025;-83
2021/10/28 09:51:56;;;;;;;17.85;9.57;;;16.80;55.00;;;;;;5049394;28;20450;-82
2021/10/28 09:54:45;;;;;;;21.27;9.45;;;16.60;55.60;;;;;;5049619;28;20107;-82
2021/10/28 10:00:11;;;;;;;16.20;9.88;;;16.20;57.40;;;;;;5050143;28;20412;-79
2021/10/28 10:05:25;;;;;;;21.95;10.05;;;15.80;58.10;;;;;;5032128;28;20517;-77
2021/10/28 10:07:53;;;;;;;22.20;8.00;;;15.80;58.40;;;;;;5033960;28;20029;-77
2021/10/28 10:10:28;;;;;;;17.38;8.80;;;15.70;59.10;;;;;;5033473;28;20404;-78
2021/10/28 10:12:55;;;;;;;16.98;7.72;;;15.50;59.60;;;;;;5036379;28;20135;-77
2021/10/28 10:15:21;;;;;;;16.10;8.68;;;15.40;59.60;;;;;;5040289;28;20052;-75
2021/10/28 10:17:55;;;;;;;22.65;8.48;;;15.40;59.80;;;;;;5029706;28;20029;-77
2021/10/28 10:20:36;;;;;;;19.95;9.05;;;15.30;60.10;;;;;;5030540;28;20061;-75
2021/10/28 10:26:17;;;;;;;23.45;9.07;;;15.10;60.60;;;;;;5019390;28;20041;-75
2021/10/28 10:29:27;;;;;;;24.25;7.88;;;15.30;59.80;;;;;;5030969;28;20045;-76
2021/10/28 12:28:14;;;;;;;17.35;9.40;;;15.40;58.20;;;;;;5050628;28;20451;-75
2021/10/28 13:04:52;;;;;;;25.13;10.88;;;15.90;55.70;;;;;;5053621;28;20047;-75
2021/10/28 13:07:49;;;;;;;29.00;10.10;;;15.80;55.30;;;;;;5036022;28;20053;-76
2021/10/28 13:48:52;;;;;;;18.27;10.75;;;15.10;56.70;;;;;;5055334;28;20096;-76
2021/10/28 13:51:30;;;;;;;20.10;9.93;;;15.00;56.90;;;;;;5037655;28;20025;-76
2021/10/28 14:16:24;;;;;;;16.73;9.53;;;14.60;58.50;;;;;;5055597;28;20114;-76
2021/10/28 14:19:27;;;;;;;24.20;9.43;;;14.50;58.50;;;;;;5054921;28;20362;-75
2021/10/28 15:02:04;;;;;;;42.90;20.88;;;13.40;61.00;;;;;;5052477;28;20025;-78
2021/10/28 16:22:13;;;;;;;86.78;31.05;;;9.60;77.90;;;;;;5052619;28;20043;-76
2021/10/28 16:24:38;;;;;;;;;;;9.40;78.50;;;;;;5053237;28;20029;-75
2021/10/28 16:27:05;;;;;;;81.78;29.13;;;9.40;79.30;;;;;;5052730;28;19909;-75
2021/10/28 16:29:32;;;;;;;82.65;34.63;;;9.30;80.00;;;;;;5034164;28;20098;-76
2021/10/28 16:31:59;;;;;;;135.98;65.00;;;9.20;80.80;;;;;;5051922;28;20033;-76
2021/10/28 16:34:27;;;;;;;126.90;53.83;;;9.10;81.40;;;;;;5052414;28;20041;-75
2021/10/28 16:36:53;;;;;;;107.85;51.80;;;9.10;82.10;;;;;;5053109;28;20056;-75
2021/10/28 16:39:20;;;;;;;87.90;41.30;;;9.00;82.80;;;;;;5054166;28;20048;-75
2021/10/28 16:41:49;;;;;;;77.10;40.58;;;9.00;83.60;;;;;;5034952;28;20033;-76
2021/10/28 16:44:16;;;;;;;53.58;26.63;;;9.00;84.60;;;;;;5035978;28;20028;-76
2021/10/28 16:46:42;;;;;;;43.88;22.27;;;8.90;85.40;;;;;;5056243;28;20094;-76
2021/10/28 16:49:09;;;;;;;34.40;20.80;;;8.80;86.40;;;;;;5038957;28;20021;-76
2021/10/28 16:51:35;;;;;;;32.83;17.80;;;8.80;87.40;;;;;;5034853;28;20029;-75
2021/10/28 16:54:02;;;;;;;22.30;13.48;;;8.80;88.40;;;;;;5034745;28;20036;-76
2021/10/28 16:56:30;;;;;;;;;;;8.70;89.10;;;;;;5056100;28;20032;-77
2021/10/28 16:58:57;;;;;;;19.77;12.15;;;8.70;90.00;;;;;;5055508;28;19904;-76
2021/10/28 17:01:24;;;;;;;25.85;14.07;;;8.70;90.30;;;;;;5036169;28;20029;-75
2021/10/28 17:03:51;;;;;;;25.98;13.75;;;8.70;90.80;;;;;;5050007;28;20123;-77
2021/10/28 17:06:17;;;;;;;37.58;15.88;;;8.70;90.80;;;;;;5033892;28;20075;-76
2021/10/28 17:08:43;;;;;;;;;;;8.70;91.10;;;;;;5051149;28;20532;-76
2021/10/28 17:11:09;;;;;;;47.85;21.35;;;8.60;91.30;;;;;;5063803;28;19919;-75
2021/10/28 17:13:36;;;;;;;47.10;20.10;;;8.60;91.60;;;;;;5048983;28;20103;-76
2021/10/28 17:16:02;;;;;;;74.43;34.92;;;8.50;92.00;;;;;;5030520;28;20045;-75
2021/10/28 17:18:27;;;;;;;;;;;8.40;92.30;;;;;;5029003;28;20029;-76
2021/10/28 17:20:56;;;;;;;29.58;18.90;;;8.40;92.60;;;;;;5030721;28;19909;-75
2021/10/28 17:23:29;;;;;;;32.78;15.77;;;8.30;93.00;;;;;;5048838;28;20472;-76
2021/10/28 17:25:56;;;;;;;31.92;15.60;;;8.20;93.30;;;;;;5049226;28;20028;-76
2021/10/28 17:28:23;;;;;;;29.67;14.75;;;8.20;93.80;;;;;;5048985;28;20344;-76
2021/10/28 17:30:49;;;;;;;28.15;14.80;;;8.30;93.90;;;;;;5048601;28;20644;-76
2021/10/28 17:33:15;;;;;;;;;;;8.20;94.10;;;;;;5031281;28;20017;-76
2021/10/28 17:35:40;;;;;;;34.00;18.00;;;8.20;94.40;;;;;;5032150;28;20670;-76
2021/10/28 17:38:07;;;;;;;25.40;14.98;;;8.10;94.60;;;;;;5031722;28;20061;-75
2021/10/28 17:40:32;;;;;;;27.17;16.23;;;8.10;94.80;;;;;;5049401;28;20064;-76
2021/10/28 17:42:58;;;;;;;30.95;16.17;;;8.10;95.10;;;;;;5049994;28;20316;-76
2021/10/28 17:45:29;;;;;;;28.48;16.65;;;8.00;95.20;;;;;;5051150;28;20037;-76
2021/10/28 17:47:56;;;;;;;37.80;19.42;;;8.00;95.40;;;;;;5053876;28;20028;-75
2021/10/28 17:50:23;;;;;;;30.98;16.67;;;8.00;95.60;;;;;;5054239;28;20037;-76
2021/10/28 17:52:50;;;;;;;32.42;16.23;;;7.90;95.80;;;;;;5036151;28;20021;-76
2021/10/28 17:55:15;;;;;;;23.77;13.32;;;8.00;95.80;;;;;;5053741;28;20100;-76
2021/10/28 17:57:44;;;;;;;;;;;8.00;95.90;;;;;;5054008;28;20559;-76
2021/10/28 18:00:12;;;;;;;31.00;13.57;;;7.90;96.00;;;;;;5054386;28;20375;-76
2021/10/28 18:02:39;;;;;;;28.55;12.00;;;7.90;96.10;;;;;;5036308;28;20029;-76
2021/10/28 18:05:06;;;;;;;23.75;11.52;;;7.80;96.20;;;;;;5053817;28;20049;-76
2021/10/28 18:07:33;;;;;;;23.55;12.50;;;7.80;96.40;;;;;;5041233;28;20033;-76
2021/10/28 18:09:59;;;;;;;22.30;12.85;;;7.70;96.50;;;;;;5055761;28;20025;-76
2021/10/28 18:12:29;;;;;;;;;;;7.70;96.60;;;;;;5035612;28;20032;-76
2021/10/28 18:14:56;;;;;;;29.42;12.20;;;7.70;96.80;;;;;;5068765;28;19975;-77
2021/10/28 18:17:22;;;;;;;20.40;10.98;;;7.70;97.20;;;;;;5036335;28;20071;-76
2021/10/28 18:19:51;;;;;;;19.05;10.73;;;7.70;97.10;;;;;;5037460;28;20052;-76
2021/10/28 18:22:17;;;;;;;15.57;8.32;;;7.60;97.10;;;;;;5042432;28;20291;-76
2021/10/28 18:24:43;;;;;;;32.13;12.90;;;7.60;97.20;;;;;;5052255;28;20025;-76
2021/10/28 18:27:10;;;;;;;38.28;14.85;;;7.70;96.90;;;;;;5050219;28;20099;-75
2021/10/28 18:29:37;;;;;;;19.65;10.45;;;7.70;96.70;;;;;;5033438;28;20029;-75
2021/10/28 18:32:07;;;;;;;14.05;9.13;;;7.70;96.60;;;;;;5051446;28;20033;-76
2021/10/28 18:34:39;;;;;;;22.60;8.75;;;7.70;96.40;;;;;;5051858;28;20101;-76
2021/10/28 18:37:05;;;;;;;19.60;9.73;;;7.70;96.30;;;;;;5051816;28;20020;-75
2021/10/28 18:39:30;;;;;;;;;;;7.70;96.20;;;;;;5035457;28;20543;-76
2021/10/28 18:41:58;;;;;;;16.98;8.98;;;7.70;96.20;;;;;;5051941;28;20420;-75
2021/10/28 18:44:25;;;;;;;17.05;8.88;;;7.70;96.10;;;;;;5067506;28;20297;-77
2021/10/28 18:46:52;;;;;;;17.10;8.85;;;7.60;95.90;;;;;;5034117;28;20025;-76
2021/10/28 18:49:19;;;;;;;17.60;9.15;;;7.60;95.80;;;;;;5052162;28;20025;-74
2021/10/28 18:51:48;;;;;;;15.13;7.78;;;7.60;95.60;;;;;;5051978;28;20032;-75
2021/10/28 18:54:16;;;;;;;14.00;8.00;;;7.70;95.50;;;;;;5034632;28;20041;-75
2021/10/28 18:56:43;;;;;;;17.48;7.72;;;7.60;95.30;;;;;;5051950;28;20298;-76
2021/10/28 18:59:09;;;;;;;12.70;7.07;;;7.60;95.30;;;;;;5035190;28;20036;-75
2021/10/28 19:01:36;;;;;;;;;;;7.60;94.70;;;;;;5034733;28;20384;-77
2021/10/28 19:04:02;;;;;;;16.95;7.50;;;7.50;94.50;;;;;;5034219;28;19905;-77
2021/10/28 19:06:28;;;;;;;;;;;7.50;94.30;;;;;;5051837;28;20052;-76
2021/10/28 19:08:54;;;;;;;12.70;7.35;;;7.60;94.30;;;;;;5034660;28;19991;-77
2021/10/28 19:11:24;;;;;;;;;;;7.50;93.70;;;;;;5052986;28;20029;-77
2021/10/28 19:13:50;;;;;;;17.10;6.97;;;7.40;93.10;;;;;;5034187;28;19955;-77
2021/10/28 19:16:16;;;;;;;;;;;7.40;92.70;;;;;;5069380;28;20082;-77
2021/10/28 19:18:43;;;;;;;15.55;8.73;;;7.40;92.70;;;;;;5035114;28;19905;-77
2021/10/28 19:21:10;;;;;;;26.75;10.23;;;7.30;92.70;;;;;;5053176;28;20045;-78
2021/10/28 19:23:36;;;;;;;22.58;11.73;;;7.30;92.80;;;;;;5054882;28;20024;-77
2021/10/28 19:26:03;;;;;;;21.55;10.77;;;7.20;92.70;;;;;;5019479;28;20029;-77
2021/10/28 19:28:29;;;;;;;19.52;10.75;;;7.20;92.70;;;;;;5037059;28;20074;-77
2021/10/28 19:31:03;;;;;;;;;;;7.20;92.70;;;;;;5055305;28;20021;-77
2021/10/28 19:33:44;;;;;;;22.58;10.27;;;7.10;92.90;;;;;;5061145;28;19909;-78
2021/10/28 19:41:49;;;;;;;;;;;6.90;94.40;;;;;;5051890;28;20036;-76
2021/10/28 19:46:59;;;;;;;86.28;33.53;;;6.70;95.90;;;;;;5052289;28;20511;-77
2021/10/28 19:49:25;;;;;;;98.63;36.20;;;6.60;96.50;;;;;;5053253;28;20033;-77
2021/10/28 19:51:51;;;;;;;;;;;6.50;97.10;;;;;;5035596;28;20025;-77
2021/10/28 19:54:17;;;;;;;104.15;39.47;;;6.30;97.60;;;;;;5054224;28;20120;-77
2021/10/28 19:56:44;;;;;;;94.95;35.90;;;6.30;98.40;;;;;;5059053;28;20037;-77
2021/10/28 19:59:17;;;;;;;77.45;32.13;;;6.10;98.80;;;;;;5058048;28;20029;-77
2021/10/28 20:01:50;;;;;;;86.30;34.05;;;6.10;99.10;;;;;;5053414;28;20039;-77
2021/10/28 20:04:31;;;;;;;70.88;33.17;;;6.00;99.40;;;;;;5032132;28;20029;-77
2021/10/28 20:07:17;;;;;;;70.38;30.02;;;6.00;99.80;;;;;;5050503;28;20459;-77
2021/10/28 20:20:34;;;;;;;34.20;19.30;;;5.90;99.90;;;;;;5049981;28;20091;-77
2021/10/28 20:23:00;;;;;;;42.65;18.52;;;5.90;99.90;;;;;;5032338;28;20562;-77
2021/10/28 20:25:28;;;;;;;37.75;19.20;;;5.90;99.90;;;;;;5031514;28;20025;-77
2021/10/28 20:27:57;;;;;;;33.60;17.38;;;5.90;99.90;;;;;;5049529;28;20036;-77
2021/10/28 20:30:26;;;;;;;32.80;16.75;;;5.90;99.90;;;;;;5049248;28;20104;-78
2021/10/28 20:32:52;;;;;;;31.50;15.90;;;5.90;99.90;;;;;;5048554;28;20040;-77
2021/10/28 20:37:53;;;;;;;39.10;18.70;;;5.90;99.90;;;;;;5049070;28;20032;-77
2021/10/28 20:40:19;;;;;;;33.13;18.25;;;5.80;99.90;;;;;;5049179;28;20402;-77
2021/10/28 20:42:49;;;;;;;36.67;19.50;;;5.70;99.90;;;;;;5030308;28;20032;-76
2021/10/28 20:45:21;;;;;;;40.67;20.08;;;5.80;99.90;;;;;;5049017;28;20783;-77
2021/10/28 20:47:52;;;;;;;47.85;23.13;;;5.70;99.90;;;;;;5048430;28;20489;-77
2021/10/28 20:50:20;;;;;;;51.15;25.25;;;5.70;99.90;;;;;;5031043;28;20029;-76
2021/10/28 20:52:46;;;;;;;49.08;25.38;;;5.60;99.90;;;;;;5047986;28;20100;-77
2021/10/28 20:55:13;;;;;;;44.50;22.60;;;5.60;99.90;;;;;;5049445;28;20048;-77
2021/10/28 20:57:40;;;;;;;49.35;21.70;;;5.60;99.90;;;;;;5048579;28;20025;-75
2021/10/28 21:00:10;;;;;;;46.72;21.33;;;5.60;99.90;;;;;;5029471;28;20607;-76
2021/10/28 21:02:40;;;;;;;42.65;20.10;;;5.60;99.90;;;;;;5048958;28;20021;-77
2021/10/28 21:05:10;;;;;;;41.03;20.08;;;5.60;99.90;;;;;;5048990;28;20052;-77
2021/10/28 21:07:38;;;;;;;40.63;19.15;;;5.70;99.90;;;;;;5049791;28;20457;-76
2021/10/28 21:10:05;;;;;;;44.63;19.42;;;5.80;99.90;;;;;;5047876;28;20029;-76
2021/10/28 21:12:30;;;;;;;33.75;17.35;;;5.80;99.90;;;;;;5050208;28;20499;-76
2021/10/28 21:14:59;;;;;;;28.40;14.88;;;5.80;99.90;;;;;;5048277;28;20043;-77
2021/10/28 21:17:25;;;;;;;29.60;15.75;;;5.80;99.90;;;;;;5047769;28;20500;-76
2021/10/28 21:19:50;;;;;;;29.52;15.50;;;5.80;99.90;;;;;;5031059;28;20124;-76
2021/10/28 21:22:16;;;;;;;30.85;16.92;;;5.70;99.90;;;;;;5035115;28;20496;-77
2021/10/28 21:24:50;;;;;;;45.60;21.55;;;5.70;99.90;;;;;;5034643;28;20025;-77
2021/10/28 21:27:17;;;;;;;51.25;24.10;;;5.70;99.90;;;;;;5035879;28;20029;-77
2021/10/28 21:29:42;;;;;;;55.20;24.30;;;5.70;99.90;;;;;;5039300;28;20530;-77
2021/10/28 21:32:11;;;;;;;53.92;24.23;;;5.60;99.90;;;;;;5057042;28;20512;-75
2021/10/28 21:34:41;;;;;;;51.45;22.60;;;5.60;99.90;;;;;;5052038;28;20063;-75
2021/10/28 21:37:10;;;;;;;48.17;19.42;;;5.60;99.90;;;;;;5033858;28;20040;-76
2021/10/28 21:39:38;;;;;;;42.20;18.73;;;5.60;99.90;;;;;;5051350;28;20471;-75
2021/10/28 21:42:05;;;;;;;35.03;16.38;;;5.60;99.90;;;;;;5034430;28;20024;-76
2021/10/28 21:44:32;;;;;;;26.60;13.45;;;5.70;99.90;;;;;;5034383;28;20032;-76
2021/10/28 21:46:57;;;;;;;25.02;11.98;;;5.70;99.90;;;;;;5033999;28;20412;-75
2021/10/28 21:49:24;;;;;;;20.40;10.75;;;5.70;99.90;;;;;;5033728;28;20029;-76
2021/10/28 21:51:54;;;;;;;18.65;11.25;;;5.80;99.90;;;;;;5037178;28;20041;-76
2021/10/28 21:54:45;;;;;;;23.52;11.65;;;5.90;99.90;;;;;;5054999;28;20040;-76
2021/10/28 21:57:26;;;;;;;20.77;10.98;;;6.00;99.90;;;;;;5052577;28;20028;-76
2021/10/28 22:24:14;;;;;;;29.70;14.82;;;5.50;99.90;;;;;;5050623;28;20397;-77
2021/10/28 22:26:40;;;;;;;29.77;14.00;;;5.40;99.90;;;;;;5050499;28;20542;-78